sensor_id;sensor_type;location;lat;lon;timestamp;pressure;altitude;pressure_sealevel;temperature;humidity
46023;BME280;31756;47.936;16.224;2023-02-26T00:02:05;97630.75;;;2.03;100.00
46023;BME280;31756;47.936;16.224;2023-02-26T00:04:31;97641.69;;;2.01;100.00
46023;BME280;31756;47.936;16.224;2023-02-26T00:06:56;97646.75;;;2.01;100.00
46023;BME280;31756;47.936;16.224;2023-02-26T00:09:22;97648.44;;;1.94;100.00
46023;BME280;31756;47.936;16.224;2023-02-26T00:11:48;97655.16;;;2.00;100.00
46023;BME280;31756;47.936;16.224;2023-02-26T00:14:14;97661.09;;;1.90;100.00
46023;BME280;31756;47.936;16.224;2023-02-26T00:16:40;97662.78;;;1.89;100.00
46023;BME280;31756;47.936;16.224;2023-02-26T00:19:07;97667.84;;;1.86;100.00
46023;BME280;31756;47.936;16.224;2023-02-26T00:21:34;97682.16;;;1.86;100.00
46023;BME280;31756;47.936;16.224;2023-02-26T00:24:00;97668.66;;;1.91;100.00
46023;BME280;31756;47.936;16.224;2023-02-26T00:26:27;97661.94;;;1.79;100.00
46023;BME280;31756;47.936;16.224;2023-02-26T00:28:53;97664.44;;;1.79;100.00
46023;BME280;31756;47.936;16.224;2023-02-26T00:31:19;97657.72;;;1.84;100.00
46023;BME280;31756;47.936;16.224;2023-02-26T00:33:49;97639.19;;;1.84;100.00
46023;BME280;31756;47.936;16.224;2023-02-26T00:36:22;97620.69;;;1.77;100.00
46023;BME280;31756;47.936;16.224;2023-02-26T00:39:14;97608.03;;;1.76;100.00
46023;BME280;31756;47.936;16.224;2023-02-26T00:41:35;97599.63;;;1.86;100.00
46023;BME280;31756;47.936;16.224;2023-02-26T00:44:00;97589.50;;;1.86;100.00
46023;BME280;31756;47.936;16.224;2023-02-26T00:51:51;97586.13;;;1.81;100.00
46023;BME280;31756;47.936;16.224;2023-02-26T00:56:42;97566.78;;;1.72;100.00
46023;BME280;31756;47.936;16.224;2023-02-26T00:59:08;97564.25;;;1.72;100.00
46023;BME280;31756;47.936;16.224;2023-02-26T01:01:33;97563.41;;;1.63;100.00
46023;BME280;31756;47.936;16.224;2023-02-26T01:03:59;97584.47;;;1.72;100.00
46023;BME280;31756;47.936;16.224;2023-02-26T01:06:26;97589.50;;;1.66;100.00
46023;BME280;31756;47.936;16.224;2023-02-26T01:08:56;97599.63;;;1.66;100.00
46023;BME280;31756;47.936;16.224;2023-02-26T01:11:23;97592.03;;;1.57;100.00
46023;BME280;31756;47.936;16.224;2023-02-26T01:13:49;97593.72;;;1.55;100.00
46023;BME280;31756;47.936;16.224;2023-02-26T01:16:16;97625.72;;;1.58;100.00
46023;BME280;31756;47.936;16.224;2023-02-26T01:18:52;97633.31;;;1.52;100.00
46023;BME280;31756;47.936;16.224;2023-02-26T01:21:23;97632.44;;;1.42;100.00
46023;BME280;31756;47.936;16.224;2023-02-26T01:23:50;97628.25;;;1.38;100.00
46023;BME280;31756;47.936;16.224;2023-02-26T01:28:42;97633.28;;;1.32;100.00
46023;BME280;31756;47.936;16.224;2023-02-26T01:31:10;97645.06;;;1.36;100.00
46023;BME280;31756;47.936;16.224;2023-02-26T01:49:19;97618.13;;;1.14;100.00
46023;BME280;31756;47.936;16.224;2023-02-26T01:51:52;97624.84;;;1.12;100.00
46023;BME280;31756;47.936;16.224;2023-02-26T01:54:19;97620.63;;;1.15;100.00
46023;BME280;31756;47.936;16.224;2023-02-26T01:56:46;97637.44;;;1.09;100.00
46023;BME280;31756;47.936;16.224;2023-02-26T01:59:14;97644.16;;;1.07;100.00
46023;BME280;31756;47.936;16.224;2023-02-26T02:01:41;97641.66;;;1.05;100.00
46023;BME280;31756;47.936;16.224;2023-02-26T02:04:08;97634.09;;;1.05;100.00
46023;BME280;31756;47.936;16.224;2023-02-26T02:06:34;97640.81;;;1.05;100.00
46023;BME280;31756;47.936;16.224;2023-02-26T02:09:01;97650.06;;;1.09;100.00
46023;BME280;31756;47.936;16.224;2023-02-26T02:11:26;97644.19;;;1.05;100.00
46023;BME280;31756;47.936;16.224;2023-02-26T02:18:59;97634.88;;;0.98;100.00
46023;BME280;31756;47.936;16.224;2023-02-26T02:23:56;97633.22;;;0.96;100.00
46023;BME280;31756;47.936;16.224;2023-02-26T02:26:31;97652.56;;;0.92;100.00
46023;BME280;31756;47.936;16.224;2023-02-26T02:29:26;97672.72;;;0.93;100.00
46023;BME280;31756;47.936;16.224;2023-02-26T02:32:07;97681.13;;;0.94;100.00
46023;BME280;31756;47.936;16.224;2023-02-26T02:34:53;97676.94;;;0.95;100.00
46023;BME280;31756;47.936;16.224;2023-02-26T02:37:31;97671.88;;;0.91;100.00
46023;BME280;31756;47.936;16.224;2023-02-26T02:40:06;97687.03;;;0.88;100.00
46023;BME280;31756;47.936;16.224;2023-02-26T02:45:21;97684.47;;;0.87;100.00
46023;BME280;31756;47.936;16.224;2023-02-26T02:47:52;97682.81;;;0.87;100.00
46023;BME280;31756;47.936;16.224;2023-02-26T02:52:48;97692.88;;;0.86;100.00
46023;BME280;31756;47.936;16.224;2023-02-26T02:55:17;97704.66;;;0.84;100.00
46023;BME280;31756;47.936;16.224;2023-02-26T02:57:49;97707.22;;;0.88;100.00
46023;BME280;31756;47.936;16.224;2023-02-26T03:00:17;97692.03;;;0.82;100.00
46023;BME280;31756;47.936;16.224;2023-02-26T03:05:24;97705.47;;;0.78;100.00
46023;BME280;31756;47.936;16.224;2023-02-26T03:08:02;97713.88;;;0.82;100.00
46023;BME280;31756;47.936;16.224;2023-02-26T03:10:29;97728.19;;;0.83;100.00
46023;BME280;31756;47.936;16.224;2023-02-26T03:12:56;97750.88;;;0.81;100.00
46023;BME280;31756;47.936;16.224;2023-02-26T03:15:39;97741.66;;;0.80;100.00
46023;BME280;31756;47.936;16.224;2023-02-26T03:18:44;97736.63;;;0.83;100.00
46023;BME280;31756;47.936;16.224;2023-02-26T03:24:08;97736.56;;;0.74;100.00
46023;BME280;31756;47.936;16.224;2023-02-26T03:31:55;97738.25;;;0.78;100.00
46023;BME280;31756;47.936;16.224;2023-02-26T03:36:52;97755.84;;;0.66;100.00
46023;BME280;31756;47.936;16.224;2023-02-26T03:39:35;97768.56;;;0.80;100.00
46023;BME280;31756;47.936;16.224;2023-02-26T03:42:07;97760.94;;;0.74;100.00
46023;BME280;31756;47.936;16.224;2023-02-26T03:44:48;97756.72;;;0.73;100.00
46023;BME280;31756;47.936;16.224;2023-02-26T03:47:17;97759.22;;;0.70;100.00
46023;BME280;31756;47.936;16.224;2023-02-26T03:49:45;97775.19;;;0.63;100.00
46023;BME280;31756;47.936;16.224;2023-02-26T03:52:12;97789.44;;;0.58;100.00
46023;BME280;31756;47.936;16.224;2023-02-26T03:54:53;97799.50;;;0.58;100.00
46023;BME280;31756;47.936;16.224;2023-02-26T03:57:43;97797.84;;;0.58;100.00
46023;BME280;31756;47.936;16.224;2023-02-26T04:00:20;97799.56;;;0.65;100.00
46023;BME280;31756;47.936;16.224;2023-02-26T04:03:01;97802.91;;;0.61;100.00
46023;BME280;31756;47.936;16.224;2023-02-26T04:05:29;97822.22;;;0.61;100.00
46023;BME280;31756;47.936;16.224;2023-02-26T04:07:56;97829.81;;;0.64;100.00
46023;BME280;31756;47.936;16.224;2023-02-26T04:10:31;97830.75;;;0.78;100.00
46023;BME280;31756;47.936;16.224;2023-02-26T04:13:01;97815.66;;;0.84;100.00
46023;BME280;31756;47.936;16.224;2023-02-26T04:15:27;97831.56;;;0.77;100.00
46023;BME280;31756;47.936;16.224;2023-02-26T04:17:53;97843.34;;;0.78;100.00
46023;BME280;31756;47.936;16.224;2023-02-26T04:20:18;97837.41;;;0.68;100.00
46023;BME280;31756;47.936;16.224;2023-02-26T04:22:44;97844.19;;;0.75;100.00
46023;BME280;31756;47.936;16.224;2023-02-26T04:25:09;97833.25;;;0.73;100.00
46023;BME280;31756;47.936;16.224;2023-02-26T04:27:35;97836.63;;;0.75;100.00
46023;BME280;31756;47.936;16.224;2023-02-26T04:30:02;97833.28;;;0.79;100.00
46023;BME280;31756;47.936;16.224;2023-02-26T04:32:28;97833.28;;;0.81;100.00
46023;BME280;31756;47.936;16.224;2023-02-26T04:34:54;97851.78;;;0.81;100.00
46023;BME280;31756;47.936;16.224;2023-02-26T04:37:19;97850.13;;;0.83;100.00
46023;BME280;31756;47.936;16.224;2023-02-26T04:39:45;97841.63;;;0.72;100.00
46023;BME280;31756;47.936;16.224;2023-02-26T04:42:11;97836.63;;;0.75;100.00
46023;BME280;31756;47.936;16.224;2023-02-26T04:44:37;97843.34;;;0.75;100.00
46023;BME280;31756;47.936;16.224;2023-02-26T04:47:02;97840.00;;;0.77;100.00
46023;BME280;31756;47.936;16.224;2023-02-26T04:49:29;97832.34;;;0.68;100.00
46023;BME280;31756;47.936;16.224;2023-02-26T04:51:55;97818.97;;;0.77;100.00
46023;BME280;31756;47.936;16.224;2023-02-26T04:54:21;97809.75;;;0.80;100.00
46023;BME280;31756;47.936;16.224;2023-02-26T04:56:47;97827.34;;;0.73;100.00
46023;BME280;31756;47.936;16.224;2023-02-26T04:59:12;97831.53;;;0.69;100.00
46023;BME280;31756;47.936;16.224;2023-02-26T05:01:39;97832.38;;;0.73;100.00
46023;BME280;31756;47.936;16.224;2023-02-26T05:04:06;97845.91;;;0.76;100.00
46023;BME280;31756;47.936;16.224;2023-02-26T05:06:32;97845.03;;;0.77;100.00
46023;BME280;31756;47.936;16.224;2023-02-26T05:08:57;97840.84;;;0.76;100.00
46023;BME280;31756;47.936;16.224;2023-02-26T05:11:23;97850.88;;;0.70;100.00
46023;BME280;31756;47.936;16.224;2023-02-26T05:13:48;97863.53;;;0.75;100.00
46023;BME280;31756;47.936;16.224;2023-02-26T05:16:15;97855.94;;;0.73;100.00
46023;BME280;31756;47.936;16.224;2023-02-26T05:18:41;97861.03;;;0.76;100.00
46023;BME280;31756;47.936;16.224;2023-02-26T05:21:06;97866.06;;;0.76;100.00
46023;BME280;31756;47.936;16.224;2023-02-26T05:23:32;97878.69;;;0.79;100.00
46023;BME280;31756;47.936;16.224;2023-02-26T05:25:58;97872.84;;;0.83;100.00
46023;BME280;31756;47.936;16.224;2023-02-26T05:28:23;97889.56;;;0.72;100.00
46023;BME280;31756;47.936;16.224;2023-02-26T05:30:49;97885.44;;;0.82;100.00
46023;BME280;31756;47.936;16.224;2023-02-26T05:33:15;97889.59;;;0.75;100.00
46023;BME280;31756;47.936;16.224;2023-02-26T05:35:40;97897.09;;;0.69;100.00
46023;BME280;31756;47.936;16.224;2023-02-26T05:38:06;97899.66;;;0.71;100.00
46023;BME280;31756;47.936;16.224;2023-02-26T05:40:34;97892.13;;;0.75;100.00
46023;BME280;31756;47.936;16.224;2023-02-26T05:43:00;97898.81;;;0.73;100.00
46023;BME280;31756;47.936;16.224;2023-02-26T05:45:25;97900.50;;;0.74;100.00
46023;BME280;31756;47.936;16.224;2023-02-26T05:47:51;97903.88;;;0.72;100.00
46023;BME280;31756;47.936;16.224;2023-02-26T05:50:16;97905.53;;;0.70;100.00
46023;BME280;31756;47.936;16.224;2023-02-26T05:52:42;97913.88;;;0.64;100.00
46023;BME280;31756;47.936;16.224;2023-02-26T05:55:08;97925.75;;;0.76;100.00
46023;BME280;31756;47.936;16.224;2023-02-26T05:57:33;97926.56;;;0.72;100.00
46023;BME280;31756;47.936;16.224;2023-02-26T05:59:59;97920.63;;;0.65;100.00
46023;BME280;31756;47.936;16.224;2023-02-26T06:02:24;97922.34;;;0.71;100.00
46023;BME280;31756;47.936;16.224;2023-02-26T06:04:50;97920.63;;;0.68;100.00
46023;BME280;31756;47.936;16.224;2023-02-26T06:07:15;97923.19;;;0.71;100.00
46023;BME280;31756;47.936;16.224;2023-02-26T06:09:41;97929.06;;;0.70;100.00
46023;BME280;31756;47.936;16.224;2023-02-26T06:12:06;97928.19;;;0.67;100.00
46023;BME280;31756;47.936;16.224;2023-02-26T06:14:32;97938.25;;;0.64;100.00
46023;BME280;31756;47.936;16.224;2023-02-26T06:16:58;97955.03;;;0.60;100.00
46023;BME280;31756;47.936;16.224;2023-02-26T06:19:23;97954.28;;;0.69;100.00
46023;BME280;31756;47.936;16.224;2023-02-26T06:21:49;97958.50;;;0.71;100.00
46023;BME280;31756;47.936;16.224;2023-02-26T06:24:15;97954.28;;;0.67;100.00
46023;BME280;31756;47.936;16.224;2023-02-26T06:26:41;97949.25;;;0.70;100.00
46023;BME280;31756;47.936;16.224;2023-02-26T06:29:07;97953.38;;;0.64;100.00
46023;BME280;31756;47.936;16.224;2023-02-26T06:31:32;97942.47;;;0.65;100.00
46023;BME280;31756;47.936;16.224;2023-02-26T06:33:58;97954.28;;;0.67;100.00
46023;BME280;31756;47.936;16.224;2023-02-26T06:36:23;97961.84;;;0.70;100.00
46023;BME280;31756;47.936;16.224;2023-02-26T06:38:49;97952.69;;;0.78;100.00
46023;BME280;31756;47.936;16.224;2023-02-26T06:41:14;97957.66;;;0.72;100.00
46023;BME280;31756;47.936;16.224;2023-02-26T06:43:40;97968.56;;;0.68;100.00
46023;BME280;31756;47.936;16.224;2023-02-26T06:46:06;97956.00;;;0.71;100.00
46023;BME280;31756;47.936;16.224;2023-02-26T06:48:31;97956.00;;;0.71;100.00
46023;BME280;31756;47.936;16.224;2023-02-26T06:50:57;97961.06;;;0.76;100.00
46023;BME280;31756;47.936;16.224;2023-02-26T06:53:22;97964.41;;;0.73;100.00
46023;BME280;31756;47.936;16.224;2023-02-26T06:55:49;97978.78;;;0.80;100.00
46023;BME280;31756;47.936;16.224;2023-02-26T06:58:15;97981.31;;;0.83;100.00
46023;BME280;31756;47.936;16.224;2023-02-26T07:00:41;97972.91;;;0.86;100.00
46023;BME280;31756;47.936;16.224;2023-02-26T07:03:08;97989.78;;;0.88;100.00
46023;BME280;31756;47.936;16.224;2023-02-26T07:05:36;97993.22;;;0.97;100.00
46023;BME280;31756;47.936;16.224;2023-02-26T07:08:01;97991.44;;;0.88;100.00
46023;BME280;31756;47.936;16.224;2023-02-26T07:10:27;97991.44;;;0.86;100.00
46023;BME280;31756;47.936;16.224;2023-02-26T07:12:52;98003.22;;;0.90;100.00
46023;BME280;31756;47.936;16.224;2023-02-26T07:15:18;98009.97;;;0.91;100.00
46023;BME280;31756;47.936;16.224;2023-02-26T07:17:44;98008.25;;;0.84;100.00
46023;BME280;31756;47.936;16.224;2023-02-26T07:20:10;98016.66;;;0.86;100.00
46023;BME280;31756;47.936;16.224;2023-02-26T07:22:36;98023.41;;;0.90;100.00
46023;BME280;31756;47.936;16.224;2023-02-26T07:25:03;98025.19;;;0.99;100.00
46023;BME280;31756;47.936;16.224;2023-02-26T07:27:28;98028.66;;;1.12;100.00
46023;BME280;31756;47.936;16.224;2023-02-26T07:29:54;98035.44;;;1.17;100.00
46023;BME280;31756;47.936;16.224;2023-02-26T07:32:20;98033.91;;;1.34;100.00
46023;BME280;31756;47.936;16.224;2023-02-26T07:34:46;98031.38;;;1.36;100.00
46023;BME280;31756;47.936;16.224;2023-02-26T07:37:11;98028.78;;;1.25;100.00
46023;BME280;31756;47.936;16.224;2023-02-26T07:39:37;98027.03;;;1.20;100.00
46023;BME280;31756;47.936;16.224;2023-02-26T07:42:03;98028.81;;;1.30;100.00
46023;BME280;31756;47.936;16.224;2023-02-26T07:44:28;98032.19;;;1.32;100.00
46023;BME280;31756;47.936;16.224;2023-02-26T07:46:56;98036.41;;;1.31;100.00
46023;BME280;31756;47.936;16.224;2023-02-26T07:49:22;98025.38;;;1.22;100.00
46023;BME280;31756;47.936;16.224;2023-02-26T07:51:48;98039.88;;;1.46;100.00
46023;BME280;31756;47.936;16.224;2023-02-26T07:54:13;98041.59;;;1.51;100.00
46023;BME280;31756;47.936;16.224;2023-02-26T07:56:40;98043.97;;;1.33;100.00
46023;BME280;31756;47.936;16.224;2023-02-26T07:59:07;98042.31;;;1.36;100.00
46023;BME280;31756;47.936;16.224;2023-02-26T08:01:33;98048.34;;;1.52;100.00
46023;BME280;31756;47.936;16.224;2023-02-26T08:03:58;98047.50;;;1.55;100.00
46023;BME280;31756;47.936;16.224;2023-02-26T08:06:24;98055.09;;;1.55;100.00
46023;BME280;31756;47.936;16.224;2023-02-26T08:08:49;98045.06;;;1.65;100.00
46023;BME280;31756;47.936;16.224;2023-02-26T08:11:15;98058.59;;;1.73;100.00
46023;BME280;31756;47.936;16.224;2023-02-26T08:13:40;98062.81;;;1.79;100.00
46023;BME280;31756;47.936;16.224;2023-02-26T08:16:06;98072.91;;;1.74;100.00
46023;BME280;31756;47.936;16.224;2023-02-26T08:18:31;98077.97;;;1.76;100.00
46023;BME280;31756;47.936;16.224;2023-02-26T08:20:57;98077.16;;;1.80;100.00
46023;BME280;31756;47.936;16.224;2023-02-26T08:23:23;98082.25;;;1.88;100.00
46023;BME280;31756;47.936;16.224;2023-02-26T08:25:48;98085.47;;;1.67;100.00
46023;BME280;31756;47.936;16.224;2023-02-26T08:28:14;98087.13;;;1.62;100.00
46023;BME280;31756;47.936;16.224;2023-02-26T08:30:40;98094.75;;;1.68;100.00
46023;BME280;31756;47.936;16.224;2023-02-26T08:33:05;98091.31;;;1.61;100.00
46023;BME280;31756;47.936;16.224;2023-02-26T08:35:31;98094.88;;;1.81;100.00
46023;BME280;31756;47.936;16.224;2023-02-26T08:37:56;98094.72;;;1.63;100.00
46023;BME280;31756;47.936;16.224;2023-02-26T08:40:22;98094.88;;;1.88;100.00
46023;BME280;31756;47.936;16.224;2023-02-26T08:42:47;98090.63;;;1.80;100.00
46023;BME280;31756;47.936;16.224;2023-02-26T08:45:13;98104.03;;;1.67;100.00
46023;BME280;31756;47.936;16.224;2023-02-26T08:47:39;98122.59;;;1.72;100.00
46023;BME280;31756;47.936;16.224;2023-02-26T08:50:08;98118.28;;;1.59;100.00
46023;BME280;31756;47.936;16.224;2023-02-26T08:52:34;98119.94;;;1.56;100.00
46023;BME280;31756;47.936;16.224;2023-02-26T08:54:59;98129.34;;;1.73;100.00
46023;BME280;31756;47.936;16.224;2023-02-26T08:57:25;98131.13;;;1.88;100.00
46023;BME280;31756;47.936;16.224;2023-02-26T08:59:50;98131.97;;;1.89;100.00
46023;BME280;31756;47.936;16.224;2023-02-26T09:02:16;98127.25;;;2.43;100.00
46023;BME280;31756;47.936;16.224;2023-02-26T09:04:42;98128.19;;;2.65;100.00
46023;BME280;31756;47.936;16.224;2023-02-26T09:07:07;98124.94;;;2.99;100.00
46023;BME280;31756;47.936;16.224;2023-02-26T09:09:33;98114.81;;;3.04;100.00
46023;BME280;31756;47.936;16.224;2023-02-26T09:11:59;98128.22;;;2.80;100.00
46023;BME280;31756;47.936;16.224;2023-02-26T09:14:24;98138.44;;;2.97;100.00
46023;BME280;31756;47.936;16.224;2023-02-26T09:16:53;98135.06;;;3.02;100.00
46023;BME280;31756;47.936;16.224;2023-02-26T09:19:19;98125.69;;;2.74;100.00
46023;BME280;31756;47.936;16.224;2023-02-26T09:21:45;98137.44;;;2.58;100.00
46023;BME280;31756;47.936;16.224;2023-02-26T09:24:11;98139.25;;;2.91;100.00
46023;BME280;31756;47.936;16.224;2023-02-26T09:26:36;98138.47;;;3.12;100.00
46023;BME280;31756;47.936;16.224;2023-02-26T09:29:02;98135.13;;;3.36;100.00
46023;BME280;31756;47.936;16.224;2023-02-26T09:31:28;98157.09;;;3.37;100.00
46023;BME280;31756;47.936;16.224;2023-02-26T09:33:53;98152.88;;;3.61;100.00
46023;BME280;31756;47.936;16.224;2023-02-26T09:36:19;98158.81;;;3.39;100.00
46023;BME280;31756;47.936;16.224;2023-02-26T09:38:44;98159.41;;;2.68;100.00
46023;BME280;31756;47.936;16.224;2023-02-26T09:48:46;98188.94;;;2.72;100.00
46023;BME280;31756;47.936;16.224;2023-02-26T09:51:14;98190.97;;;1.91;100.00
46023;BME280;31756;47.936;16.224;2023-02-26T09:53:42;98197.16;;;2.29;100.00
46023;BME280;31756;47.936;16.224;2023-02-26T09:56:20;98197.69;;;1.92;100.00
46023;BME280;31756;47.936;16.224;2023-02-26T09:58:47;98202.91;;;2.10;100.00
46023;BME280;31756;47.936;16.224;2023-02-26T10:06:22;98213.88;;;2.10;100.00
46023;BME280;31756;47.936;16.224;2023-02-26T10:13:50;98230.97;;;2.48;100.00
46023;BME280;31756;47.936;16.224;2023-02-26T10:16:19;98225.75;;;2.23;100.00
46023;BME280;31756;47.936;16.224;2023-02-26T10:18:51;98219.22;;;2.53;100.00
46023;BME280;31756;47.936;16.224;2023-02-26T10:21:22;98224.44;;;2.85;100.00
46023;BME280;31756;47.936;16.224;2023-02-26T10:23:52;98232.91;;;2.88;100.00
46023;BME280;31756;47.936;16.224;2023-02-26T10:26:30;98225.28;;;2.82;100.00
46023;BME280;31756;47.936;16.224;2023-02-26T12:41:15;98310.44;;;2.74;100.00
46023;BME280;31756;47.936;16.224;2023-02-26T12:43:45;98312.81;;;1.61;100.00
46023;BME280;31756;47.936;16.224;2023-02-26T12:46:18;98323.25;;;0.60;100.00
46023;BME280;31756;47.936;16.224;2023-02-26T12:48:53;98332.25;;;0.44;100.00
46023;BME280;31756;47.936;16.224;2023-02-26T12:51:26;98324.19;;;0.68;100.00
46023;BME280;31756;47.936;16.224;2023-02-26T13:04:18;98355.78;;;1.64;100.00
46023;BME280;31756;47.936;16.224;2023-02-26T13:09:30;98364.91;;;2.31;100.00
46023;BME280;31756;47.936;16.224;2023-02-26T13:12:11;98350.66;;;2.39;100.00
46023;BME280;31756;47.936;16.224;2023-02-26T13:20:12;98351.94;;;2.99;100.00
46023;BME280;31756;47.936;16.224;2023-02-26T13:22:44;98359.41;;;2.81;100.00
46023;BME280;31756;47.936;16.224;2023-02-26T13:25:15;98353.41;;;2.66;100.00
46023;BME280;31756;47.936;16.224;2023-02-26T13:27:42;98366.88;;;2.62;100.00
46023;BME280;31756;47.936;16.224;2023-02-26T13:32:49;98378.50;;;2.42;100.00
46023;BME280;31756;47.936;16.224;2023-02-26T13:35:18;98368.75;;;1.93;100.00
46023;BME280;31756;47.936;16.224;2023-02-26T13:37:54;98383.53;;;1.59;100.00
46023;BME280;31756;47.936;16.224;2023-02-26T13:43:23;98370.75;;;1.49;100.00
46023;BME280;31756;47.936;16.224;2023-02-26T13:45:58;98382.59;;;1.54;100.00
46023;BME280;31756;47.936;16.224;2023-02-26T13:53:53;98376.44;;;2.02;100.00
46023;BME280;31756;47.936;16.224;2023-02-26T13:57:05;98365.72;;;2.27;100.00
46023;BME280;31756;47.936;16.224;2023-02-26T14:14:24;98371.91;;;4.26;100.00
46023;BME280;31756;47.936;16.224;2023-02-26T14:16:54;98377.81;;;4.22;99.95
46023;BME280;31756;47.936;16.224;2023-02-26T14:19:43;98372.75;;;4.26;97.54
46023;BME280;31756;47.936;16.224;2023-02-26T14:22:13;98381.25;;;4.54;97.02
46023;BME280;31756;47.936;16.224;2023-02-26T14:24:44;98382.09;;;4.56;90.39
46023;BME280;31756;47.936;16.224;2023-02-26T14:32:28;98399.06;;;2.80;100.00
46023;BME280;31756;47.936;16.224;2023-02-26T14:34:54;98399.00;;;1.85;100.00
46023;BME280;31756;47.936;16.224;2023-02-26T14:37:24;98406.72;;;2.00;100.00
46023;BME280;31756;47.936;16.224;2023-02-26T14:39:59;98419.59;;;2.18;100.00
46023;BME280;31756;47.936;16.224;2023-02-26T14:45:31;98398.03;;;1.75;100.00
46023;BME280;31756;47.936;16.224;2023-02-26T14:48:01;98407.06;;;1.58;100.00
46023;BME280;31756;47.936;16.224;2023-02-26T14:50:31;98409.25;;;2.00;100.00
46023;BME280;31756;47.936;16.224;2023-02-26T14:58:09;98424.56;;;2.11;100.00
46023;BME280;31756;47.936;16.224;2023-02-26T15:10:54;98440.44;;;2.01;100.00
46023;BME280;31756;47.936;16.224;2023-02-26T15:26:00;98448.06;;;2.04;100.00
46023;BME280;31756;47.936;16.224;2023-02-26T15:28:29;98439.72;;;2.09;100.00
46023;BME280;31756;47.936;16.224;2023-02-26T15:30:58;98448.06;;;2.04;100.00
46023;BME280;31756;47.936;16.224;2023-02-26T15:33:25;98449.78;;;2.06;100.00
46023;BME280;31756;47.936;16.224;2023-02-26T15:35:52;98455.78;;;2.14;100.00
46023;BME280;31756;47.936;16.224;2023-02-26T15:38:18;98454.97;;;2.18;100.00
46023;BME280;31756;47.936;16.224;2023-02-26T15:40:44;98466.72;;;2.12;100.00
46023;BME280;31756;47.936;16.224;2023-02-26T15:43:14;98476.84;;;2.12;100.00
46023;BME280;31756;47.936;16.224;2023-02-26T15:45:42;98483.31;;;1.90;100.00
46023;BME280;31756;47.936;16.224;2023-02-26T15:48:54;98490.69;;;1.76;100.00
46023;BME280;31756;47.936;16.224;2023-02-26T15:51:03;98493.13;;;1.69;100.00
46023;BME280;31756;47.936;16.224;2023-02-26T15:53:43;98495.72;;;1.73;100.00
46023;BME280;31756;47.936;16.224;2023-02-26T15:56:21;98509.94;;;1.65;100.00
46023;BME280;31756;47.936;16.224;2023-02-26T16:01:16;98517.41;;;1.59;100.00
46023;BME280;31756;47.936;16.224;2023-02-26T16:03:43;98520.84;;;1.64;100.00
46023;BME280;31756;47.936;16.224;2023-02-26T16:06:13;98520.03;;;1.65;100.00
46023;BME280;31756;47.936;16.224;2023-02-26T16:08:40;98520.06;;;1.68;100.00
46023;BME280;31756;47.936;16.224;2023-02-26T16:11:05;98523.56;;;1.76;100.00
46023;BME280;31756;47.936;16.224;2023-02-26T16:13:34;98526.00;;;1.72;100.00
46023;BME280;31756;47.936;16.224;2023-02-26T16:16:06;98520.00;;;1.64;100.00
46023;BME280;31756;47.936;16.224;2023-02-26T16:18:34;98520.84;;;1.66;100.00
46023;BME280;31756;47.936;16.224;2023-02-26T16:21:01;98530.97;;;1.64;100.00
46023;BME280;31756;47.936;16.224;2023-02-26T16:23:37;98533.50;;;1.64;100.00
46023;BME280;31756;47.936;16.224;2023-02-26T16:26:04;98532.59;;;1.61;100.00
46023;BME280;31756;47.936;16.224;2023-02-26T16:28:36;98536.84;;;1.63;100.00
46023;BME280;31756;47.936;16.224;2023-02-26T16:31:28;98542.63;;;1.56;100.00
46023;BME280;31756;47.936;16.224;2023-02-26T16:34:01;98540.16;;;1.59;100.00
46023;BME280;31756;47.936;16.224;2023-02-26T16:36:31;98548.47;;;1.54;100.00
46023;BME280;31756;47.936;16.224;2023-02-26T16:39:00;98551.00;;;1.54;100.00
46023;BME280;31756;47.936;16.224;2023-02-26T16:41:27;98550.16;;;1.53;100.00
46023;BME280;31756;47.936;16.224;2023-02-26T16:43:56;98555.97;;;1.49;100.00
46023;BME280;31756;47.936;16.224;2023-02-26T16:48:55;98557.66;;;1.47;100.00
46023;BME280;31756;47.936;16.224;2023-02-26T16:51:23;98567.81;;;1.52;100.00
46023;BME280;31756;47.936;16.224;2023-02-26T16:54:00;98579.47;;;1.44;100.00
46023;BME280;31756;47.936;16.224;2023-02-26T16:56:29;98586.09;;;1.37;100.00
46023;BME280;31756;47.936;16.224;2023-02-26T16:59:06;98590.25;;;1.33;100.00
46023;BME280;31756;47.936;16.224;2023-02-26T17:01:42;98597.91;;;1.38;100.00
46023;BME280;31756;47.936;16.224;2023-02-26T17:04:13;98599.63;;;1.39;100.00
46023;BME280;31756;47.936;16.224;2023-02-26T17:06:40;98607.88;;;1.30;100.00
46023;BME280;31756;47.936;16.224;2023-02-26T17:09:06;98609.44;;;1.24;100.00
46023;BME280;31756;47.936;16.224;2023-02-26T17:11:39;98607.75;;;1.23;100.00
46023;BME280;31756;47.936;16.224;2023-02-26T17:14:09;98615.28;;;1.21;100.00
46023;BME280;31756;47.936;16.224;2023-02-26T17:16:37;98631.16;;;1.14;100.00
46023;BME280;31756;47.936;16.224;2023-02-26T17:19:05;98630.34;;;1.17;100.00
46023;BME280;31756;47.936;16.224;2023-02-26T17:21:31;98638.84;;;1.20;100.00
46023;BME280;31756;47.936;16.224;2023-02-26T17:23:59;98643.78;;;1.14;100.00
46023;BME280;31756;47.936;16.224;2023-02-26T17:26:26;98637.81;;;1.11;100.00
46023;BME280;31756;47.936;16.224;2023-02-26T17:28:52;98650.47;;;1.12;100.00
46023;BME280;31756;47.936;16.224;2023-02-26T17:31:18;98648.75;;;1.10;100.00
46023;BME280;31756;47.936;16.224;2023-02-26T17:33:45;98652.88;;;1.06;100.00
46023;BME280;31756;47.936;16.224;2023-02-26T17:36:15;98656.25;;;1.05;100.00
46023;BME280;31756;47.936;16.224;2023-02-26T17:38:43;98654.63;;;1.09;100.00
46023;BME280;31756;47.936;16.224;2023-02-26T17:41:15;98663.00;;;1.08;100.00
46023;BME280;31756;47.936;16.224;2023-02-26T17:43:41;98662.22;;;1.10;100.00
46023;BME280;31756;47.936;16.224;2023-02-26T17:46:08;98668.09;;;1.11;100.00